createdAt,value
2022-08-25T00:08:07.641Z,72.42
2022-08-25T00:18:19.902Z,73.12
2022-08-25T00:28:23.326Z,72.61
2022-08-25T00:38:28.236Z,72.61
2022-08-25T00:48:31.468Z,72.24
2022-08-25T00:58:37.265Z,72.05
2022-08-25T01:08:40.445Z,71.67
2022-08-25T01:18:48.087Z,71.64
2022-08-25T01:29:10.089Z,72.07
2022-08-25T01:39:14.979Z,71.78
2022-08-25T01:49:19.629Z,71.73
2022-08-25T01:59:24.355Z,71.40
2022-08-25T02:09:29.331Z,71.42
2022-08-25T02:19:32.628Z,71.18
2022-08-25T02:29:37.369Z,72.02
2022-08-25T02:39:40.531Z,71.90
2022-08-25T02:49:45.751Z,72.18
2022-08-25T02:59:49.083Z,72.12
2022-08-25T03:09:53.777Z,70.64
2022-08-25T03:19:57.066Z,71.85
2022-08-25T03:30:03.363Z,71.65
2022-08-25T03:40:15.280Z,71.66
2022-08-25T03:50:22.684Z,71.48
2022-08-25T04:00:25.851Z,72.17
2022-08-25T04:10:31.190Z,72.05
2022-08-25T04:20:34.537Z,71.45
2022-08-25T04:30:43.053Z,72.02
2022-08-25T04:40:46.191Z,71.59
2022-08-25T04:50:51.367Z,71.20
2022-08-25T05:00:54.852Z,71.26
2022-08-25T05:10:59.977Z,71.26
2022-08-25T05:21:08.208Z,71.62
2022-08-25T05:31:15.101Z,71.84
2022-08-25T05:41:21.670Z,72.51
2022-08-25T05:51:27.599Z,72.08
2022-08-25T06:01:49.003Z,70.24
2022-08-25T06:11:55.236Z,65.21
2022-08-25T06:21:59.405Z,62.58
2022-08-25T06:32:04.506Z,60.67
2022-08-25T06:42:07.939Z,60.04
2022-08-25T06:52:12.966Z,59.15
2022-08-25T07:02:16.199Z,57.58
2022-08-25T07:12:26.883Z,54.44
2022-08-25T07:22:30.052Z,52.70
2022-08-25T07:32:34.642Z,52.18
2022-08-25T07:42:37.889Z,51.44
2022-08-25T07:52:42.940Z,51.67
2022-08-25T08:02:46.122Z,51.61
2022-08-25T08:12:51.015Z,52.40
2022-08-25T08:22:54.660Z,49.60
2022-08-25T08:33:09.797Z,49.08
2022-08-25T08:43:18.919Z,49.38
2022-08-25T08:53:28.710Z,48.10
2022-08-25T09:03:40.006Z,48.62
2022-08-25T09:13:56.759Z,47.75
2022-08-25T09:24:12.885Z,47.31
2022-08-25T09:34:22.152Z,44.42
2022-08-25T09:44:26.686Z,43.84
2022-08-25T09:54:44.143Z,42.07
2022-08-25T10:04:50.267Z,43.16
2022-08-25T10:14:55.360Z,41.55
2022-08-25T10:25:00.655Z,38.17
2022-08-25T10:35:14.552Z,37.52
2022-08-25T10:45:40.242Z,35.60
2022-08-25T10:55:53.497Z,35.15
2022-08-25T11:06:00.095Z,34.66
2022-08-25T11:16:17.367Z,36.19
2022-08-25T11:26:31.924Z,35.58
2022-08-25T11:36:40.631Z,36.52
2022-08-25T11:46:52.868Z,34.13
2022-08-25T11:57:01.460Z,36.75
2022-08-25T12:07:25.189Z,35.60
2022-08-25T12:17:39.673Z,37.61
2022-08-25T12:27:46.919Z,39.37
2022-08-25T12:38:04.835Z,37.29
2022-08-25T12:48:41.687Z,35.47
2022-08-25T12:59:00.229Z,35.89
2022-08-25T13:09:53.759Z,37.53
2022-08-25T13:20:13.945Z,36.66
2022-08-25T13:30:25.257Z,35.36
2022-08-25T13:40:33.811Z,35.50
2022-08-25T13:50:37.595Z,33.98
2022-08-25T14:00:47.274Z,33.93
2022-08-25T14:10:50.689Z,35.76
2022-08-25T14:20:56.263Z,35.01
2022-08-25T14:31:01.976Z,36.06
2022-08-25T14:51:13.981Z,35.63
2022-08-25T15:01:28.785Z,35.56
2022-08-25T15:11:33.706Z,35.89
2022-08-25T15:21:39.896Z,36.72
2022-08-25T15:31:44.181Z,36.07
2022-08-25T15:41:52.276Z,36.10
2022-08-25T15:51:56.290Z,38.82
2022-08-25T16:02:02.240Z,37.67
2022-08-25T16:12:08.642Z,38.82
2022-08-25T16:22:13.599Z,40.33
2022-08-25T16:32:16.804Z,41.72
2022-08-25T16:42:21.533Z,42.17
2022-08-25T16:52:44.207Z,42.79
2022-08-25T17:02:49.307Z,43.89
2022-08-25T17:12:53.187Z,44.06
2022-08-25T17:22:58.058Z,45.82
2022-08-25T17:33:01.593Z,47.70
2022-08-25T17:43:09.031Z,49.93
2022-08-25T17:53:13.847Z,53.18
2022-08-25T18:03:21.038Z,54.38
2022-08-25T18:13:24.198Z,55.68
2022-08-25T18:23:29.594Z,56.41
2022-08-25T18:33:32.900Z,57.83
2022-08-25T18:43:37.649Z,58.90
2022-08-25T18:53:50.111Z,59.10
2022-08-25T19:03:55.180Z,59.65
2022-08-25T19:13:59.685Z,60.78
2022-08-25T19:24:05.099Z,61.62
2022-08-25T19:34:09.863Z,62.64
2022-08-25T19:44:14.729Z,63.15
2022-08-25T19:54:21.290Z,63.20
2022-08-25T20:04:25.910Z,63.64
2022-08-25T20:14:29.082Z,64.28
2022-08-25T20:24:56.090Z,64.65
2022-08-25T20:35:01.809Z,65.23
2022-08-25T20:45:07.963Z,65.90
2022-08-25T20:55:11.889Z,65.37
2022-08-25T21:05:17.396Z,65.86
2022-08-25T21:15:21.054Z,66.01
2022-08-25T21:25:25.642Z,66.42
2022-08-25T21:35:28.805Z,66.58
2022-08-25T21:45:42.150Z,67.35
2022-08-25T21:55:50.439Z,67.32
2022-08-25T22:05:55.061Z,67.34
2022-08-25T22:15:58.790Z,67.42
2022-08-25T22:26:03.448Z,67.51
2022-08-25T22:36:15.620Z,68.46
2022-08-25T22:46:22.460Z,68.67
2022-08-25T22:56:30.832Z,68.42
2022-08-25T23:06:35.548Z,67.91
2022-08-25T23:16:39.423Z,67.66
2022-08-25T23:26:48.603Z,68.36
2022-08-25T23:36:55.814Z,68.18
2022-08-25T23:47:00.394Z,68.27
2022-08-25T23:57:03.813Z,68.10
